sensor_id;sensor_type;location;lat;lon;timestamp;pressure;altitude;pressure_sealevel;temperature;humidity
42111;BME280;27766;52.174;5.456;2023-04-26T00:02:20;101859.75;;;5.02;100.00
42111;BME280;27766;52.174;5.456;2023-04-26T00:04:51;101853.50;;;4.97;100.00
42111;BME280;27766;52.174;5.456;2023-04-26T00:07:25;101856.22;;;5.00;100.00
42111;BME280;27766;52.174;5.456;2023-04-26T00:09:54;101850.34;;;5.02;100.00
42111;BME280;27766;52.174;5.456;2023-04-26T00:12:21;101855.69;;;4.90;100.00
42111;BME280;27766;52.174;5.456;2023-04-26T00:14:49;101853.75;;;4.86;100.00
42111;BME280;27766;52.174;5.456;2023-04-26T00:17:16;101864.00;;;4.86;100.00
42111;BME280;27766;52.174;5.456;2023-04-26T00:19:43;101859.31;;;4.79;100.00
42111;BME280;27766;52.174;5.456;2023-04-26T00:22:11;101858.34;;;4.77;100.00
42111;BME280;27766;52.174;5.456;2023-04-26T00:24:38;101853.91;;;4.74;100.00
42111;BME280;27766;52.174;5.456;2023-04-26T00:27:05;101862.41;;;4.73;100.00
42111;BME280;27766;52.174;5.456;2023-04-26T00:29:36;101860.28;;;4.66;100.00
42111;BME280;27766;52.174;5.456;2023-04-26T00:32:03;101851.28;;;4.73;100.00
42111;BME280;27766;52.174;5.456;2023-04-26T00:34:32;101849.44;;;4.70;100.00
42111;BME280;27766;52.174;5.456;2023-04-26T00:37:00;101845.88;;;4.68;100.00
42111;BME280;27766;52.174;5.456;2023-04-26T00:39:27;101851.78;;;4.67;100.00
42111;BME280;27766;52.174;5.456;2023-04-26T00:41:54;101836.22;;;4.64;100.00
42111;BME280;27766;52.174;5.456;2023-04-26T00:44:22;101848.34;;;4.67;100.00
42111;BME280;27766;52.174;5.456;2023-04-26T00:46:51;101846.66;;;4.67;100.00
42111;BME280;27766;52.174;5.456;2023-04-26T00:49:23;101844.72;;;4.63;100.00
42111;BME280;27766;52.174;5.456;2023-04-26T00:51:53;101828.59;;;4.51;100.00
42111;BME280;27766;52.174;5.456;2023-04-26T00:54:20;101838.88;;;4.51;100.00
42111;BME280;27766;52.174;5.456;2023-04-26T00:56:48;101841.06;;;4.44;100.00
42111;BME280;27766;52.174;5.456;2023-04-26T00:59:19;101836.75;;;4.43;100.00
42111;BME280;27766;52.174;5.456;2023-04-26T01:01:46;101826.13;;;4.37;100.00
42111;BME280;27766;52.174;5.456;2023-04-26T01:04:15;101837.16;;;4.36;100.00
42111;BME280;27766;52.174;5.456;2023-04-26T01:06:43;101837.59;;;4.29;100.00
42111;BME280;27766;52.174;5.456;2023-04-26T01:09:10;101831.91;;;4.20;100.00
42111;BME280;27766;52.174;5.456;2023-04-26T01:11:41;101843.25;;;4.23;100.00
42111;BME280;27766;52.174;5.456;2023-04-26T01:14:09;101841.19;;;4.18;100.00
42111;BME280;27766;52.174;5.456;2023-04-26T01:16:37;101849.69;;;4.17;100.00
42111;BME280;27766;52.174;5.456;2023-04-26T01:19:11;101851.34;;;4.16;100.00
42111;BME280;27766;52.174;5.456;2023-04-26T01:21:38;101849.22;;;4.09;100.00
42111;BME280;27766;52.174;5.456;2023-04-26T01:24:08;101850.91;;;4.08;100.00
42111;BME280;27766;52.174;5.456;2023-04-26T01:26:36;101852.00;;;3.99;100.00
42111;BME280;27766;52.174;5.456;2023-04-26T01:29:13;101854.47;;;3.97;100.00
42111;BME280;27766;52.174;5.456;2023-04-26T01:31:41;101855.50;;;3.86;100.00
42111;BME280;27766;52.174;5.456;2023-04-26T01:34:08;101848.41;;;3.82;100.00
42111;BME280;27766;52.174;5.456;2023-04-26T01:36:35;101857.94;;;3.84;100.00
42111;BME280;27766;52.174;5.456;2023-04-26T01:39:03;101846.34;;;3.76;100.00
42111;BME280;27766;52.174;5.456;2023-04-26T01:41:30;101860.22;;;3.79;100.00
42111;BME280;27766;52.174;5.456;2023-04-26T01:43:58;101858.47;;;3.78;100.00
42111;BME280;27766;52.174;5.456;2023-04-26T01:46:25;101851.59;;;3.77;100.00
42111;BME280;27766;52.174;5.456;2023-04-26T01:48:53;101859.28;;;3.77;100.00
42111;BME280;27766;52.174;5.456;2023-04-26T01:51:20;101848.66;;;3.71;100.00
42111;BME280;27766;52.174;5.456;2023-04-26T01:53:48;101845.56;;;3.77;100.00
42111;BME280;27766;52.174;5.456;2023-04-26T01:56:15;101843.78;;;3.76;100.00
42111;BME280;27766;52.174;5.456;2023-04-26T01:58:42;101839.38;;;3.73;100.00
42111;BME280;27766;52.174;5.456;2023-04-26T02:01:09;101840.72;;;3.82;100.00
42111;BME280;27766;52.174;5.456;2023-04-26T02:03:37;101843.78;;;3.76;100.00
42111;BME280;27766;52.174;5.456;2023-04-26T02:06:04;101847.91;;;3.87;100.00
42111;BME280;27766;52.174;5.456;2023-04-26T02:08:32;101841.91;;;3.87;100.00
42111;BME280;27766;52.174;5.456;2023-04-26T02:10:59;101842.09;;;3.90;100.00
42111;BME280;27766;52.174;5.456;2023-04-26T02:13:26;101833.31;;;3.86;100.00
42111;BME280;27766;52.174;5.456;2023-04-26T02:15:53;101834.03;;;3.84;100.00
42111;BME280;27766;52.174;5.456;2023-04-26T02:18:20;101848.00;;;3.89;100.00
42111;BME280;27766;52.174;5.456;2023-04-26T02:20:48;101836.78;;;3.87;100.00
42111;BME280;27766;52.174;5.456;2023-04-26T02:23:15;101849.97;;;3.79;100.00
42111;BME280;27766;52.174;5.456;2023-04-26T02:25:45;101840.63;;;3.80;100.00
42111;BME280;27766;52.174;5.456;2023-04-26T02:28:13;101848.25;;;3.78;100.00
42111;BME280;27766;52.174;5.456;2023-04-26T02:30:42;101846.47;;;3.77;100.00
42111;BME280;27766;52.174;5.456;2023-04-26T02:33:09;101838.28;;;3.70;100.00
42111;BME280;27766;52.174;5.456;2023-04-26T02:35:36;101846.09;;;3.71;100.00
42111;BME280;27766;52.174;5.456;2023-04-26T02:38:03;101853.38;;;3.65;100.00
42111;BME280;27766;52.174;5.456;2023-04-26T02:40:31;101850.72;;;3.63;100.00
42111;BME280;27766;52.174;5.456;2023-04-26T02:42:58;101851.41;;;3.61;100.00
42111;BME280;27766;52.174;5.456;2023-04-26T02:45:25;101849.44;;;3.57;100.00
42111;BME280;27766;52.174;5.456;2023-04-26T02:47:52;101843.25;;;3.53;100.00
42111;BME280;27766;52.174;5.456;2023-04-26T02:50:20;101843.84;;;3.49;100.00
42111;BME280;27766;52.174;5.456;2023-04-26T02:52:47;101845.13;;;3.42;100.00
42111;BME280;27766;52.174;5.456;2023-04-26T02:55:14;101837.84;;;3.35;100.00
42111;BME280;27766;52.174;5.456;2023-04-26T02:57:41;101842.28;;;3.38;100.00
42111;BME280;27766;52.174;5.456;2023-04-26T03:00:09;101846.31;;;3.34;100.00
42111;BME280;27766;52.174;5.456;2023-04-26T03:02:37;101850.97;;;3.26;100.00
42111;BME280;27766;52.174;5.456;2023-04-26T03:05:04;101847.09;;;3.20;100.00
42111;BME280;27766;52.174;5.456;2023-04-26T03:07:32;101842.59;;;3.15;100.00
42111;BME280;27766;52.174;5.456;2023-04-26T03:09:59;101831.97;;;3.09;100.00
42111;BME280;27766;52.174;5.456;2023-04-26T03:12:27;101838.16;;;3.13;100.00
42111;BME280;27766;52.174;5.456;2023-04-26T03:14:54;101838.06;;;3.11;100.00
42111;BME280;27766;52.174;5.456;2023-04-26T03:17:22;101839.66;;;3.09;100.00
42111;BME280;27766;52.174;5.456;2023-04-26T03:19:49;101837.28;;;2.99;100.00
42111;BME280;27766;52.174;5.456;2023-04-26T03:22:16;101838.75;;;2.95;100.00
42111;BME280;27766;52.174;5.456;2023-04-26T03:24:44;101840.13;;;2.90;100.00
42111;BME280;27766;52.174;5.456;2023-04-26T03:27:12;101835.50;;;2.84;100.00
42111;BME280;27766;52.174;5.456;2023-04-26T03:29:40;101839.03;;;2.87;100.00
42111;BME280;27766;52.174;5.456;2023-04-26T03:32:09;101840.22;;;2.78;100.00
42111;BME280;27766;52.174;5.456;2023-04-26T03:34:37;101833.41;;;2.79;100.00
42111;BME280;27766;52.174;5.456;2023-04-26T03:37:04;101829.47;;;2.71;100.00
42111;BME280;27766;52.174;5.456;2023-04-26T03:39:31;101831.44;;;2.75;100.00
42111;BME280;27766;52.174;5.456;2023-04-26T03:41:58;101827.22;;;2.75;100.00
42111;BME280;27766;52.174;5.456;2023-04-26T03:44:25;101828.28;;;2.79;100.00
42111;BME280;27766;52.174;5.456;2023-04-26T03:46:54;101809.00;;;2.71;100.00
42111;BME280;27766;52.174;5.456;2023-04-26T03:49:22;101828.22;;;2.77;100.00
42111;BME280;27766;52.174;5.456;2023-04-26T03:51:49;101829.97;;;2.78;100.00
42111;BME280;27766;52.174;5.456;2023-04-26T03:54:16;101831.94;;;2.82;100.00
42111;BME280;27766;52.174;5.456;2023-04-26T03:56:43;101833.94;;;2.87;100.00
42111;BME280;27766;52.174;5.456;2023-04-26T03:59:10;101835.41;;;2.83;100.00
42111;BME280;27766;52.174;5.456;2023-04-26T04:01:38;101837.53;;;2.77;100.00
42111;BME280;27766;52.174;5.456;2023-04-26T04:04:05;101826.91;;;2.71;100.00
42111;BME280;27766;52.174;5.456;2023-04-26T04:06:32;101837.22;;;2.72;100.00
42111;BME280;27766;52.174;5.456;2023-04-26T04:08:59;101838.59;;;2.67;100.00
42111;BME280;27766;52.174;5.456;2023-04-26T04:11:27;101822.25;;;2.65;100.00
42111;BME280;27766;52.174;5.456;2023-04-26T04:13:54;101828.69;;;2.72;100.00
42111;BME280;27766;52.174;5.456;2023-04-26T04:16:21;101828.00;;;2.74;100.00
42111;BME280;27766;52.174;5.456;2023-04-26T04:18:49;101835.28;;;2.81;100.00
42111;BME280;27766;52.174;5.456;2023-04-26T04:21:16;101831.84;;;2.81;100.00
42111;BME280;27766;52.174;5.456;2023-04-26T04:23:43;101828.28;;;2.79;100.00
42111;BME280;27766;52.174;5.456;2023-04-26T04:26:10;101828.59;;;2.83;100.00
42111;BME280;27766;52.174;5.456;2023-04-26T04:28:39;101821.72;;;2.82;100.00
42111;BME280;27766;52.174;5.456;2023-04-26T04:31:07;101833.41;;;2.92;100.00
42111;BME280;27766;52.174;5.456;2023-04-26T04:33:36;101836.28;;;2.97;100.00
42111;BME280;27766;52.174;5.456;2023-04-26T04:36:03;101825.19;;;2.96;100.00
42111;BME280;27766;52.174;5.456;2023-04-26T04:38:31;101827.44;;;3.05;100.00
42111;BME280;27766;52.174;5.456;2023-04-26T04:40:58;101834.72;;;3.12;100.00
42111;BME280;27766;52.174;5.456;2023-04-26T04:43:25;101831.28;;;3.12;100.00
42111;BME280;27766;52.174;5.456;2023-04-26T04:45:53;101833.53;;;3.21;100.00
42111;BME280;27766;52.174;5.456;2023-04-26T04:48:24;101841.22;;;3.21;100.00
42111;BME280;27766;52.174;5.456;2023-04-26T04:50:51;101841.22;;;3.21;100.00
42111;BME280;27766;52.174;5.456;2023-04-26T04:53:20;101836.00;;;3.19;100.00
42111;BME280;27766;52.174;5.456;2023-04-26T04:55:47;101844.38;;;3.16;100.00
42111;BME280;27766;52.174;5.456;2023-04-26T04:58:15;101838.34;;;3.16;100.00
42111;BME280;27766;52.174;5.456;2023-04-26T05:00:43;101848.88;;;3.21;100.00
42111;BME280;27766;52.174;5.456;2023-04-26T05:03:13;101842.13;;;3.21;100.00
42111;BME280;27766;52.174;5.456;2023-04-26T05:05:41;101838.16;;;3.26;100.00
42111;BME280;27766;52.174;5.456;2023-04-26T05:08:08;101828.00;;;3.28;100.00
42111;BME280;27766;52.174;5.456;2023-04-26T05:10:35;101843.09;;;3.37;100.00
42111;BME280;27766;52.174;5.456;2023-04-26T05:13:02;101836.38;;;3.39;100.00
42111;BME280;27766;52.174;5.456;2023-04-26T05:15:29;101849.66;;;3.46;100.00
42111;BME280;27766;52.174;5.456;2023-04-26T05:17:56;101853.31;;;3.50;100.00
42111;BME280;27766;52.174;5.456;2023-04-26T05:20:25;101850.91;;;3.53;100.00
42111;BME280;27766;52.174;5.456;2023-04-26T05:22:52;101852.69;;;3.54;100.00
42111;BME280;27766;52.174;5.456;2023-04-26T05:25:21;101801.44;;;3.26;100.00
42111;BME280;27766;52.174;5.456;2023-04-26T05:27:49;101846.22;;;3.59;100.00
42111;BME280;27766;52.174;5.456;2023-04-26T05:30:16;101856.34;;;3.71;100.00
42111;BME280;27766;52.174;5.456;2023-04-26T05:32:43;101853.38;;;3.78;100.00
42111;BME280;27766;52.174;5.456;2023-04-26T05:35:11;101847.69;;;3.98;100.00
42111;BME280;27766;52.174;5.456;2023-04-26T05:37:38;101856.91;;;4.09;100.00
42111;BME280;27766;52.174;5.456;2023-04-26T05:40:06;101860.22;;;4.21;100.00
42111;BME280;27766;52.174;5.456;2023-04-26T05:42:35;101857.25;;;4.28;100.00
42111;BME280;27766;52.174;5.456;2023-04-26T05:45:03;101860.53;;;4.41;100.00
42111;BME280;27766;52.174;5.456;2023-04-26T05:47:30;101857.88;;;4.54;100.00
42111;BME280;27766;52.174;5.456;2023-04-26T05:49:58;101861.25;;;4.68;100.00
42111;BME280;27766;52.174;5.456;2023-04-26T05:52:25;101860.19;;;4.80;100.00
42111;BME280;27766;52.174;5.456;2023-04-26T05:54:53;101868.78;;;4.95;100.00
42111;BME280;27766;52.174;5.456;2023-04-26T05:57:20;101841.59;;;4.99;100.00
42111;BME280;27766;52.174;5.456;2023-04-26T05:59:47;101857.22;;;5.33;100.00
42111;BME280;27766;52.174;5.456;2023-04-26T06:02:14;101856.88;;;5.42;100.00
42111;BME280;27766;52.174;5.456;2023-04-26T06:04:41;101867.53;;;5.50;100.00
42111;BME280;27766;52.174;5.456;2023-04-26T06:07:09;101867.84;;;5.71;100.00
42111;BME280;27766;52.174;5.456;2023-04-26T06:09:36;101875.59;;;5.88;100.00
42111;BME280;27766;52.174;5.456;2023-04-26T06:12:04;101868.72;;;6.03;100.00
42111;BME280;27766;52.174;5.456;2023-04-26T06:14:31;101880.38;;;6.13;100.00
42111;BME280;27766;52.174;5.456;2023-04-26T06:16:58;101875.38;;;6.32;100.00
42111;BME280;27766;52.174;5.456;2023-04-26T06:19:25;101873.53;;;6.30;100.00
42111;BME280;27766;52.174;5.456;2023-04-26T06:21:53;101877.31;;;6.37;100.00
42111;BME280;27766;52.174;5.456;2023-04-26T06:24:24;101880.75;;;6.37;100.00
42111;BME280;27766;52.174;5.456;2023-04-26T06:26:52;101876.59;;;6.39;100.00
42111;BME280;27766;52.174;5.456;2023-04-26T06:29:20;101876.09;;;6.46;100.00
42111;BME280;27766;52.174;5.456;2023-04-26T06:31:47;101879.59;;;6.47;100.00
42111;BME280;27766;52.174;5.456;2023-04-26T06:34:14;101882.28;;;6.50;100.00
42111;BME280;27766;52.174;5.456;2023-04-26T06:36:41;101878.97;;;6.53;100.00
42111;BME280;27766;52.174;5.456;2023-04-26T06:39:08;101889.31;;;6.71;100.00
42111;BME280;27766;52.174;5.456;2023-04-26T06:41:36;101884.03;;;6.68;100.00
42111;BME280;27766;52.174;5.456;2023-04-26T06:44:04;101891.53;;;6.63;100.00
42111;BME280;27766;52.174;5.456;2023-04-26T06:46:31;101887.19;;;6.62;100.00
42111;BME280;27766;52.174;5.456;2023-04-26T06:48:59;101883.13;;;6.67;100.00
42111;BME280;27766;52.174;5.456;2023-04-26T06:51:27;101888.94;;;6.79;100.00
42111;BME280;27766;52.174;5.456;2023-04-26T06:53:55;101891.22;;;6.91;100.00
42111;BME280;27766;52.174;5.456;2023-04-26T06:56:25;101898.44;;;6.99;100.00
42111;BME280;27766;52.174;5.456;2023-04-26T07:01:27;101907.25;;;6.86;100.00
42111;BME280;27766;52.174;5.456;2023-04-26T07:03:55;101905.59;;;7.04;100.00
42111;BME280;27766;52.174;5.456;2023-04-26T07:06:26;101904.59;;;7.19;100.00
42111;BME280;27766;52.174;5.456;2023-04-26T07:08:53;101910.66;;;7.21;100.00
42111;BME280;27766;52.174;5.456;2023-04-26T07:11:20;101896.25;;;7.06;100.00
42111;BME280;27766;52.174;5.456;2023-04-26T07:13:51;101907.91;;;7.16;100.00
42111;BME280;27766;52.174;5.456;2023-04-26T07:16:19;101908.03;;;7.19;100.00
42111;BME280;27766;52.174;5.456;2023-04-26T07:18:47;101899.34;;;7.17;100.00
42111;BME280;27766;52.174;5.456;2023-04-26T07:21:14;101904.19;;;7.29;100.00
42111;BME280;27766;52.174;5.456;2023-04-26T07:23:42;101895.91;;;7.35;100.00
42111;BME280;27766;52.174;5.456;2023-04-26T07:26:09;101897.22;;;7.44;100.00
42111;BME280;27766;52.174;5.456;2023-04-26T07:28:37;101901.13;;;7.54;100.00
42111;BME280;27766;52.174;5.456;2023-04-26T07:31:04;101891.72;;;7.74;100.00
42111;BME280;27766;52.174;5.456;2023-04-26T07:33:34;101888.06;;;7.69;100.00
42111;BME280;27766;52.174;5.456;2023-04-26T07:36:02;101875.69;;;7.80;100.00
42111;BME280;27766;52.174;5.456;2023-04-26T07:38:29;101891.41;;;7.86;100.00
42111;BME280;27766;52.174;5.456;2023-04-26T07:40:56;101890.00;;;7.73;100.00
42111;BME280;27766;52.174;5.456;2023-04-26T07:43:24;101890.34;;;8.01;100.00
42111;BME280;27766;52.174;5.456;2023-04-26T07:45:58;101896.47;;;8.03;100.00
42111;BME280;27766;52.174;5.456;2023-04-26T07:48:25;101900.50;;;8.16;100.00
42111;BME280;27766;52.174;5.456;2023-04-26T07:50:53;101896.88;;;8.12;100.00
42111;BME280;27766;52.174;5.456;2023-04-26T07:53:21;101901.34;;;8.16;98.47
42111;BME280;27766;52.174;5.456;2023-04-26T07:55:49;101900.84;;;8.23;92.94
42111;BME280;27766;52.174;5.456;2023-04-26T07:58:20;101904.91;;;8.18;100.00
42111;BME280;27766;52.174;5.456;2023-04-26T08:00:48;101904.34;;;8.06;100.00
42111;BME280;27766;52.174;5.456;2023-04-26T08:03:15;101902.09;;;8.14;100.00
42111;BME280;27766;52.174;5.456;2023-04-26T08:05:44;101907.81;;;8.06;100.00
42111;BME280;27766;52.174;5.456;2023-04-26T08:08:11;101912.97;;;8.46;100.00
42111;BME280;27766;52.174;5.456;2023-04-26T08:10:41;101907.91;;;8.47;100.00
42111;BME280;27766;52.174;5.456;2023-04-26T08:13:09;101916.88;;;8.75;100.00
42111;BME280;27766;52.174;5.456;2023-04-26T08:15:36;101920.66;;;8.44;100.00
42111;BME280;27766;52.174;5.456;2023-04-26T08:18:03;101915.66;;;8.47;100.00
42111;BME280;27766;52.174;5.456;2023-04-26T08:20:31;101900.91;;;8.64;98.13
42111;BME280;27766;52.174;5.456;2023-04-26T08:23:03;101904.00;;;8.77;100.00
42111;BME280;27766;52.174;5.456;2023-04-26T08:25:31;101908.09;;;8.93;100.00
42111;BME280;27766;52.174;5.456;2023-04-26T08:28:00;101913.19;;;8.70;100.00
42111;BME280;27766;52.174;5.456;2023-04-26T08:30:28;101915.16;;;8.36;100.00
42111;BME280;27766;52.174;5.456;2023-04-26T08:32:55;101918.16;;;8.26;100.00
42111;BME280;27766;52.174;5.456;2023-04-26T08:35:23;101911.22;;;8.25;98.02
42111;BME280;27766;52.174;5.456;2023-04-26T08:37:50;101915.91;;;8.34;99.46
42111;BME280;27766;52.174;5.456;2023-04-26T08:40:22;101909.09;;;8.16;100.00
42111;BME280;27766;52.174;5.456;2023-04-26T08:42:51;101908.94;;;7.93;100.00
42111;BME280;27766;52.174;5.456;2023-04-26T08:45:24;101912.75;;;8.02;100.00
42111;BME280;27766;52.174;5.456;2023-04-26T08:48:02;101913.56;;;8.01;100.00
42111;BME280;27766;52.174;5.456;2023-04-26T08:50:32;101909.13;;;7.79;100.00
42111;BME280;27766;52.174;5.456;2023-04-26T08:53:00;101907.56;;;7.82;100.00
42111;BME280;27766;52.174;5.456;2023-04-26T08:55:28;101914.03;;;7.92;100.00
42111;BME280;27766;52.174;5.456;2023-04-26T08:57:56;101919.78;;;7.86;100.00
42111;BME280;27766;52.174;5.456;2023-04-26T09:00:24;101920.09;;;7.92;100.00
42111;BME280;27766;52.174;5.456;2023-04-26T09:02:52;101914.56;;;7.85;100.00
42111;BME280;27766;52.174;5.456;2023-04-26T09:05:21;101914.78;;;7.89;100.00
42111;BME280;27766;52.174;5.456;2023-04-26T09:07:56;101915.84;;;7.75;100.00
42111;BME280;27766;52.174;5.456;2023-04-26T09:10:25;101915.63;;;7.52;100.00
42111;BME280;27766;52.174;5.456;2023-04-26T09:12:54;101912.16;;;7.52;100.00
42111;BME280;27766;52.174;5.456;2023-04-26T09:15:24;101903.56;;;7.51;100.00
42111;BME280;27766;52.174;5.456;2023-04-26T09:17:52;101906.94;;;7.50;100.00
42111;BME280;27766;52.174;5.456;2023-04-26T09:20:26;101905.38;;;7.54;100.00
42111;BME280;27766;52.174;5.456;2023-04-26T09:23:04;101916.34;;;7.68;100.00
42111;BME280;27766;52.174;5.456;2023-04-26T09:25:33;101917.38;;;7.71;100.00
42111;BME280;27766;52.174;5.456;2023-04-26T09:28:01;101908.75;;;7.71;100.00
42111;BME280;27766;52.174;5.456;2023-04-26T09:30:37;101916.41;;;7.69;100.00
42111;BME280;27766;52.174;5.456;2023-04-26T09:33:05;101922.38;;;7.68;100.00
42111;BME280;27766;52.174;5.456;2023-04-26T09:35:36;101912.34;;;7.74;100.00
42111;BME280;27766;52.174;5.456;2023-04-26T09:38:11;101916.00;;;7.98;100.00
42111;BME280;27766;52.174;5.456;2023-04-26T09:43:12;101914.41;;;8.19;100.00
42111;BME280;27766;52.174;5.456;2023-04-26T09:48:28;101924.25;;;8.28;100.00
42111;BME280;27766;52.174;5.456;2023-04-26T09:50:58;101916.16;;;8.40;100.00
42111;BME280;27766;52.174;5.456;2023-04-26T09:53:37;101917.28;;;8.65;100.00
42111;BME280;27766;52.174;5.456;2023-04-26T09:56:10;101911.81;;;8.78;96.42
42111;BME280;27766;52.174;5.456;2023-04-26T09:58:59;101913.47;;;9.18;94.33
42111;BME280;27766;52.174;5.456;2023-04-26T10:01:28;101907.56;;;9.21;85.51
42111;BME280;27766;52.174;5.456;2023-04-26T10:03:56;101905.16;;;9.26;86.47
42111;BME280;27766;52.174;5.456;2023-04-26T10:06:26;101907.50;;;9.19;86.17
42111;BME280;27766;52.174;5.456;2023-04-26T10:08:54;101914.91;;;9.33;80.81
42111;BME280;27766;52.174;5.456;2023-04-26T10:11:23;101914.88;;;9.10;68.99
42111;BME280;27766;52.174;5.456;2023-04-26T10:13:50;101911.03;;;9.00;74.02
42111;BME280;27766;52.174;5.456;2023-04-26T10:16:19;101902.13;;;8.94;82.62
42111;BME280;27766;52.174;5.456;2023-04-26T10:18:46;101901.31;;;8.95;84.57
42111;BME280;27766;52.174;5.456;2023-04-26T10:21:19;101910.97;;;8.99;82.60
42111;BME280;27766;52.174;5.456;2023-04-26T10:23:48;101910.94;;;9.20;84.21
42111;BME280;27766;52.174;5.456;2023-04-26T10:26:53;101913.88;;;9.28;80.41
42111;BME280;27766;52.174;5.456;2023-04-26T10:29:24;101909.78;;;8.91;70.58
42111;BME280;27766;52.174;5.456;2023-04-26T10:34:30;101911.16;;;8.82;74.94
42111;BME280;27766;52.174;5.456;2023-04-26T10:37:14;101904.63;;;9.12;64.96
42111;BME280;27766;52.174;5.456;2023-04-26T10:39:43;101912.34;;;9.33;63.65
42111;BME280;27766;52.174;5.456;2023-04-26T10:42:21;101909.72;;;9.54;63.29
42111;BME280;27766;52.174;5.456;2023-04-26T10:44:55;101906.50;;;9.37;64.39
42111;BME280;27766;52.174;5.456;2023-04-26T10:50:04;101905.69;;;9.38;67.62
42111;BME280;27766;52.174;5.456;2023-04-26T10:52:33;101898.16;;;9.44;64.53
42111;BME280;27766;52.174;5.456;2023-04-26T10:55:01;101906.75;;;9.89;67.45
42111;BME280;27766;52.174;5.456;2023-04-26T10:57:51;101904.16;;;9.89;61.32
42111;BME280;27766;52.174;5.456;2023-04-26T11:00:29;101900.34;;;9.79;59.14
42111;BME280;27766;52.174;5.456;2023-04-26T11:03:02;101897.84;;;10.05;58.69
42111;BME280;27766;52.174;5.456;2023-04-26T11:05:36;101900.59;;;10.09;58.17
42111;BME280;27766;52.174;5.456;2023-04-26T11:08:14;101900.53;;;10.30;60.02
42111;BME280;27766;52.174;5.456;2023-04-26T11:10:44;101902.84;;;9.77;59.44
42111;BME280;27766;52.174;5.456;2023-04-26T11:13:12;101907.09;;;9.53;63.95
42111;BME280;27766;52.174;5.456;2023-04-26T11:15:39;101901.22;;;9.57;62.64
42111;BME280;27766;52.174;5.456;2023-04-26T11:18:06;101892.50;;;9.55;63.89
42111;BME280;27766;52.174;5.456;2023-04-26T11:20:34;101894.69;;;9.66;62.49
42111;BME280;27766;52.174;5.456;2023-04-26T11:23:01;101901.66;;;9.46;64.61
42111;BME280;27766;52.174;5.456;2023-04-26T11:25:28;101893.25;;;9.29;69.42
42111;BME280;27766;52.174;5.456;2023-04-26T11:27:58;101879.84;;;9.38;75.44
42111;BME280;27766;52.174;5.456;2023-04-26T11:30:27;101884.41;;;9.45;70.57
42111;BME280;27766;52.174;5.456;2023-04-26T11:32:55;101876.25;;;9.34;78.67
42111;BME280;27766;52.174;5.456;2023-04-26T11:35:23;101866.19;;;9.42;78.32
42111;BME280;27766;52.174;5.456;2023-04-26T11:37:51;101883.31;;;9.61;73.95
42111;BME280;27766;52.174;5.456;2023-04-26T11:40:18;101872.41;;;9.93;73.81
42111;BME280;27766;52.174;5.456;2023-04-26T11:42:45;101878.41;;;10.14;67.96
42111;BME280;27766;52.174;5.456;2023-04-26T11:45:16;101875.28;;;10.25;66.04
42111;BME280;27766;52.174;5.456;2023-04-26T11:47:44;101867.88;;;10.34;64.32
42111;BME280;27766;52.174;5.456;2023-04-26T11:50:12;101881.25;;;10.47;60.63
42111;BME280;27766;52.174;5.456;2023-04-26T11:52:40;101882.66;;;10.61;60.23
42111;BME280;27766;52.174;5.456;2023-04-26T11:55:08;101877.69;;;10.67;58.34
42111;BME280;27766;52.174;5.456;2023-04-26T11:57:36;101877.84;;;10.48;55.49
42111;BME280;27766;52.174;5.456;2023-04-26T12:00:10;101883.88;;;10.24;57.08
42111;BME280;27766;52.174;5.456;2023-04-26T12:02:38;101880.06;;;10.61;59.07
42111;BME280;27766;52.174;5.456;2023-04-26T12:05:06;101878.06;;;10.29;53.66
42111;BME280;27766;52.174;5.456;2023-04-26T12:07:36;101876.16;;;10.01;54.70
42111;BME280;27766;52.174;5.456;2023-04-26T12:10:20;101883.00;;;10.23;52.80
42111;BME280;27766;52.174;5.456;2023-04-26T12:12:49;101878.66;;;10.22;51.41
42111;BME280;27766;52.174;5.456;2023-04-26T12:15:19;101884.53;;;10.41;53.68
42111;BME280;27766;52.174;5.456;2023-04-26T12:17:59;101876.75;;;9.94;52.35
42111;BME280;27766;52.174;5.456;2023-04-26T12:20:37;101884.59;;;9.95;53.75
42111;BME280;27766;52.174;5.456;2023-04-26T12:23:08;101884.88;;;10.03;54.47
42111;BME280;27766;52.174;5.456;2023-04-26T12:25:37;101888.78;;;9.92;56.45
42111;BME280;27766;52.174;5.456;2023-04-26T12:28:07;101893.59;;;9.82;54.63
42111;BME280;27766;52.174;5.456;2023-04-26T12:30:40;101884.75;;;9.77;55.39
42111;BME280;27766;52.174;5.456;2023-04-26T12:33:07;101881.94;;;9.94;56.06
42111;BME280;27766;52.174;5.456;2023-04-26T12:35:43;101881.84;;;9.91;56.80
42111;BME280;27766;52.174;5.456;2023-04-26T12:38:11;101884.69;;;9.98;55.80
42111;BME280;27766;52.174;5.456;2023-04-26T12:40:40;101888.56;;;10.10;54.63
42111;BME280;27766;52.174;5.456;2023-04-26T12:43:08;101880.13;;;10.16;56.13
42111;BME280;27766;52.174;5.456;2023-04-26T12:45:35;101893.22;;;9.96;57.50
42111;BME280;27766;52.174;5.456;2023-04-26T12:48:03;101898.75;;;9.82;57.03
42111;BME280;27766;52.174;5.456;2023-04-26T12:50:31;101890.59;;;9.72;57.42
42111;BME280;27766;52.174;5.456;2023-04-26T12:52:58;101894.41;;;9.59;58.99
42111;BME280;27766;52.174;5.456;2023-04-26T12:55:25;101895.94;;;9.54;59.30
42111;BME280;27766;52.174;5.456;2023-04-26T12:57:52;101886.28;;;9.72;59.16
42111;BME280;27766;52.174;5.456;2023-04-26T13:00:20;101878.84;;;9.80;58.29
42111;BME280;27766;52.174;5.456;2023-04-26T13:02:48;101891.06;;;9.61;58.13
42111;BME280;27766;52.174;5.456;2023-04-26T13:05:15;101886.13;;;9.68;59.52
42111;BME280;27766;52.174;5.456;2023-04-26T13:07:42;101888.06;;;9.73;59.80
42111;BME280;27766;52.174;5.456;2023-04-26T13:10:10;101893.09;;;9.47;61.55
42111;BME280;27766;52.174;5.456;2023-04-26T13:12:39;101890.25;;;9.62;61.15
42111;BME280;27766;52.174;5.456;2023-04-26T13:15:07;101892.34;;;9.50;62.07